Time;durP1;ratioP1;P1;durP2;ratioP2;P2;SDS_P1;SDS_P2;PMS_P1;PMS_P2;Temp;Humidity;BMP_temperature;BMP_pressure;BME280_temperature;BME280_humidity;BME280_pressure;Samples;Min_cycle;Max_cycle;Signal;HPM_P1;HPM_P2
2022/01/24 00:01:57;;;;;;;19.63;10.95;;;5.50;99.90;;;;;;5050917;28;20056;-75
2022/01/24 00:04:23;;;;;;;11.52;8.77;;;5.50;99.90;;;;;;5049330;28;20136;-73
2022/01/24 00:06:50;;;;;;;13.30;9.93;;;5.50;99.90;;;;;;5051604;28;20085;-74
2022/01/24 00:09:16;;;;;;;12.02;10.50;;;5.50;99.90;;;;;;5049147;28;20045;-73
2022/01/24 00:11:47;;;;;;;14.82;9.80;;;5.50;99.90;;;;;;5051998;28;20060;-74
2022/01/24 00:14:49;;;;;;;10.52;9.07;;;5.50;99.90;;;;;;5049704;28;20075;-74
2022/01/24 00:17:28;;;;;;;11.82;9.30;;;5.50;99.90;;;;;;5050082;28;20136;-74
2022/01/24 00:28:07;;;;;;;9.05;7.65;;;5.50;99.90;;;;;;5050742;28;20492;-74
2022/01/24 00:30:33;;;;;;;12.48;9.30;;;5.50;99.90;;;;;;5050775;28;20041;-74
2022/01/24 00:32:59;;;;;;;12.15;8.50;;;5.50;99.90;;;;;;5051287;28;20457;-73
2022/01/24 00:35:25;;;;;;;10.73;8.73;;;5.50;99.90;;;;;;5050296;28;20081;-74
2022/01/24 00:37:50;;;;;;;11.32;8.85;;;5.50;99.90;;;;;;5051281;28;20391;-74
2022/01/24 00:40:16;;;;;;;10.55;8.40;;;5.50;99.90;;;;;;5049698;28;20056;-74
2022/01/24 00:45:28;;;;;;;9.77;8.13;;;5.50;99.90;;;;;;5049877;28;20408;-73
2022/01/24 00:53:18;;;;;;;7.85;7.05;;;5.40;99.90;;;;;;5049503;28;20057;-73
2022/01/24 00:55:47;;;;;;;8.30;7.00;;;5.40;99.90;;;;;;5050764;28;20045;-74
2022/01/24 00:58:12;;;;;;;9.70;6.85;;;5.40;99.90;;;;;;5050140;28;20088;-73
2022/01/24 01:00:38;;;;;;;9.50;6.72;;;5.40;99.90;;;;;;5049174;28;20083;-73
2022/01/24 01:03:04;;;;;;;8.23;6.35;;;5.40;99.90;;;;;;5049473;28;20205;-74
2022/01/24 01:18:40;;;;;;;5.63;5.13;;;5.30;99.90;;;;;;5050025;28;20045;-74
2022/01/24 01:21:11;;;;;;;7.45;5.60;;;5.30;99.90;;;;;;5049158;28;20052;-74
2022/01/24 01:23:41;;;;;;;5.40;4.85;;;5.30;99.90;;;;;;5050144;28;20049;-73
2022/01/24 01:26:15;;;;;;;6.72;5.15;;;5.30;99.90;;;;;;5049539;28;20052;-74
2022/01/24 01:28:44;;;;;;;6.18;5.57;;;5.30;99.90;;;;;;5047324;28;20107;-74
2022/01/24 01:31:19;;;;;;;8.52;5.78;;;5.20;99.90;;;;;;5049659;28;20060;-74
2022/01/24 01:36:34;;;;;;;5.65;5.15;;;5.20;99.90;;;;;;5048705;28;20053;-74
2022/01/24 01:39:29;;;;;;;6.00;5.10;;;5.20;99.90;;;;;;5049253;28;20053;-74
2022/01/24 01:55:39;;;;;;;7.35;4.88;;;5.10;99.90;;;;;;5028877;28;20054;-73
2022/01/24 01:58:16;;;;;;;5.13;4.72;;;5.10;99.90;;;;;;5029635;28;20107;-74
2022/01/24 02:00:45;;;;;;;6.50;4.80;;;5.10;99.90;;;;;;5029640;28;20084;-74
2022/01/24 02:03:11;;;;;;;5.28;4.38;;;5.10;99.90;;;;;;5045514;28;20093;-74
2022/01/24 02:05:37;;;;;;;6.68;4.65;;;5.10;99.90;;;;;;5029808;28;20049;-73
2022/01/24 02:08:04;;;;;;;4.68;4.25;;;5.10;99.90;;;;;;5029222;28;20052;-73
2022/01/24 02:10:32;;;;;;;5.53;4.10;;;5.10;99.90;;;;;;5029121;28;20046;-74
2022/01/24 02:12:58;;;;;;;5.72;4.03;;;5.10;99.90;;;;;;5032388;28;20125;-73
2022/01/24 02:15:33;;;;;;;5.72;5.13;;;5.10;99.90;;;;;;5049196;28;20147;-74
2022/01/24 02:18:14;;;;;;;5.38;4.72;;;5.00;99.90;;;;;;5048688;28;20049;-74
2022/01/24 02:26:01;;;;;;;4.35;3.95;;;5.10;99.90;;;;;;5048742;28;20108;-74
2022/01/24 02:28:32;;;;;;;5.18;4.18;;;5.00;99.90;;;;;;5049251;28;20798;-74
2022/01/24 02:33:32;;;;;;;6.75;4.32;;;5.00;99.90;;;;;;5049420;28;20075;-74
2022/01/24 02:35:58;;;;;;;5.28;4.25;;;5.00;99.90;;;;;;5049333;28;20495;-74
2022/01/24 02:38:47;;;;;;;4.75;4.25;;;5.00;99.90;;;;;;5050585;28;20063;-74
2022/01/24 02:49:33;;;;;;;6.55;4.28;;;5.00;99.90;;;;;;5052741;28;20057;-74
2022/01/24 02:52:07;;;;;;;4.38;3.97;;;5.00;99.90;;;;;;5052078;28;20055;-73
2022/01/24 02:54:34;;;;;;;5.13;4.20;;;5.00;99.90;;;;;;5052944;28;20053;-73
2022/01/24 02:57:00;;;;;;;5.28;4.43;;;5.00;99.90;;;;;;5052935;28;20052;-75
2022/01/24 02:59:26;;;;;;;5.53;4.13;;;5.00;99.90;;;;;;5051958;28;20060;-75
2022/01/24 03:01:52;;;;;;;4.90;4.40;;;5.00;99.90;;;;;;5052719;28;20057;-75
2022/01/24 03:04:18;;;;;;;4.97;4.35;;;5.00;99.90;;;;;;5052283;28;20044;-75
2022/01/24 03:06:44;;;;;;;5.65;4.47;;;5.00;99.90;;;;;;5051964;28;20040;-75
2022/01/24 03:09:11;;;;;;;6.07;4.63;;;5.00;99.90;;;;;;5052295;28;20106;-75
2022/01/24 03:14:24;;;;;;;6.43;5.35;;;5.00;99.90;;;;;;5051579;28;20053;-75
2022/01/24 03:16:50;;;;;;;5.55;4.50;;;5.00;99.90;;;;;;5052451;28;20077;-75
2022/01/24 03:19:15;;;;;;;3.90;3.58;;;4.90;99.90;;;;;;5051261;28;20092;-75
2022/01/24 03:21:42;;;;;;;5.00;4.00;;;5.00;99.90;;;;;;5051785;28;20844;-75
2022/01/24 03:24:09;;;;;;;4.65;4.10;;;4.90;99.90;;;;;;5051801;28;20068;-74
2022/01/24 03:26:34;;;;;;;5.57;4.35;;;5.00;99.90;;;;;;5053631;28;20051;-75
2022/01/24 03:29:00;;;;;;;6.40;4.47;;;4.90;99.90;;;;;;5051559;28;20056;-75
2022/01/24 03:31:26;;;;;;;4.53;4.13;;;4.90;99.90;;;;;;5053551;28;20041;-75
2022/01/24 03:33:51;;;;;;;5.90;4.50;;;4.90;99.90;;;;;;5051886;28;20443;-74
2022/01/24 03:36:17;;;;;;;4.97;4.47;;;4.90;99.90;;;;;;5051153;28;20049;-75
2022/01/24 03:38:43;;;;;;;5.15;4.28;;;4.90;99.90;;;;;;5052105;28;20049;-75
2022/01/24 03:41:09;;;;;;;5.40;4.65;;;4.90;99.90;;;;;;5051160;28;20137;-75
2022/01/24 03:43:34;;;;;;;5.28;4.53;;;4.90;99.90;;;;;;5053283;28;20049;-75
2022/01/24 03:48:51;;;;;;;6.22;4.50;;;4.90;99.90;;;;;;5051112;28;20099;-75
2022/01/24 03:51:17;;;;;;;6.45;4.70;;;4.90;99.90;;;;;;5051261;28;20052;-75
2022/01/24 03:53:44;;;;;;;6.28;5.35;;;4.90;99.90;;;;;;5051542;28;20045;-74
2022/01/24 03:56:10;;;;;;;7.30;5.38;;;4.90;99.90;;;;;;5050445;28;20067;-75
2022/01/24 03:58:37;;;;;;;6.63;4.82;;;4.90;99.90;;;;;;5051763;28;20134;-74
2022/01/24 04:01:05;;;;;;;5.60;4.65;;;4.90;99.90;;;;;;5051194;28;20049;-75
2022/01/24 04:03:31;;;;;;;5.60;5.00;;;4.90;99.90;;;;;;5052147;28;20094;-74
2022/01/24 04:05:57;;;;;;;4.80;4.40;;;4.90;99.90;;;;;;5051615;28;20373;-75
2022/01/24 04:08:22;;;;;;;6.00;5.07;;;4.90;99.90;;;;;;5051150;28;20098;-75
2022/01/24 04:10:52;;;;;;;5.57;4.85;;;4.90;99.90;;;;;;5051914;28;20033;-75
2022/01/24 04:18:56;;;;;;;4.97;4.47;;;4.90;99.90;;;;;;5051142;28;20049;-75
2022/01/24 04:21:26;;;;;;;5.75;5.15;;;4.80;99.90;;;;;;5050917;28;20049;-75
2022/01/24 04:24:04;;;;;;;6.68;5.20;;;4.90;99.90;;;;;;5050240;28;20063;-75
2022/01/24 04:26:31;;;;;;;6.93;5.32;;;4.90;99.90;;;;;;5050988;28;20504;-74
2022/01/24 04:28:58;;;;;;;7.15;5.50;;;4.90;99.90;;;;;;5051088;28;20055;-75
2022/01/24 04:31:24;;;;;;;6.47;5.53;;;4.90;99.90;;;;;;5051397;28;20178;-75
2022/01/24 04:33:50;;;;;;;6.78;6.00;;;4.90;99.90;;;;;;5052346;28;20136;-75
2022/01/24 04:36:16;;;;;;;7.63;5.90;;;4.80;99.90;;;;;;5050724;28;20060;-75
2022/01/24 04:38:43;;;;;;;8.25;6.18;;;4.80;99.90;;;;;;5050060;28;20052;-75
2022/01/24 04:41:20;;;;;;;7.18;6.20;;;4.80;99.90;;;;;;5050721;28;20080;-74
2022/01/24 04:56:29;;;;;;;9.15;7.32;;;4.80;99.90;;;;;;5050733;28;20396;-75
2022/01/24 04:58:54;;;;;;;7.85;6.38;;;4.80;99.90;;;;;;5050004;28;20044;-74
2022/01/24 05:01:20;;;;;;;9.07;6.80;;;4.80;99.90;;;;;;5049066;28;20507;-74
2022/01/24 05:03:45;;;;;;;9.18;6.68;;;4.80;99.90;;;;;;5049921;28;20132;-75
2022/01/24 05:06:11;;;;;;;11.05;6.57;;;4.80;99.90;;;;;;5048098;28;20049;-75
2022/01/24 05:08:37;;;;;;;9.95;7.43;;;4.80;99.90;;;;;;5050264;28;20075;-74
2022/01/24 05:11:07;;;;;;;8.25;6.95;;;4.80;99.90;;;;;;5050121;28;20041;-74
2022/01/24 05:24:33;;;;;;;9.32;7.50;;;4.80;99.90;;;;;;5032905;28;20130;-74
2022/01/24 05:26:58;;;;;;;12.48;9.13;;;4.80;99.90;;;;;;5049134;28;20099;-75
2022/01/24 05:29:24;;;;;;;9.73;8.13;;;4.80;99.90;;;;;;5049641;28;20048;-75
2022/01/24 05:31:50;;;;;;;10.23;8.38;;;4.80;99.90;;;;;;5049795;28;20119;-75
2022/01/24 05:34:15;;;;;;;10.02;7.60;;;4.80;99.90;;;;;;5049121;28;20127;-75
2022/01/24 05:36:41;;;;;;;8.73;7.13;;;4.70;99.90;;;;;;5049868;28;20090;-75
2022/01/24 05:39:07;;;;;;;10.23;7.90;;;4.70;99.90;;;;;;5049280;28;20053;-75
2022/01/24 05:41:32;;;;;;;17.05;10.35;;;4.70;99.90;;;;;;5049330;28;20075;-74
2022/01/24 05:43:58;;;;;;;14.27;10.02;;;4.70;99.90;;;;;;5049655;28;20059;-75
2022/01/24 05:46:24;;;;;;;20.48;11.63;;;4.70;99.90;;;;;;5050905;28;20399;-75
2022/01/24 05:48:49;;;;;;;13.82;10.07;;;4.70;99.90;;;;;;5049268;28;20056;-75
2022/01/24 05:51:15;;;;;;;12.32;9.68;;;4.70;99.90;;;;;;5049487;28;20088;-75
2022/01/24 05:53:41;;;;;;;11.65;8.95;;;4.80;99.90;;;;;;5049661;28;20545;-75
2022/01/24 05:56:07;;;;;;;11.63;8.70;;;4.80;99.90;;;;;;5048676;28;20099;-74
2022/01/24 05:58:32;;;;;;;12.77;8.77;;;4.70;99.90;;;;;;5048969;28;20045;-75
2022/01/24 06:00:58;;;;;;;16.90;9.98;;;4.80;99.90;;;;;;5050851;28;20083;-74
2022/01/24 06:03:24;;;;;;;11.65;9.35;;;4.80;99.90;;;;;;5048424;28;20081;-75
2022/01/24 06:05:49;;;;;;;14.10;9.98;;;4.80;99.90;;;;;;5049396;28;20049;-75
2022/01/24 06:08:15;;;;;;;14.15;9.75;;;4.70;99.90;;;;;;5049033;28;20052;-75
2022/01/24 06:10:41;;;;;;;12.77;9.45;;;4.70;99.90;;;;;;5048692;28;20454;-75
2022/01/24 06:13:07;;;;;;;12.85;10.05;;;4.70;99.90;;;;;;5053332;28;20048;-75
2022/01/24 06:15:33;;;;;;;12.30;9.35;;;4.80;99.90;;;;;;5087645;28;20105;-74
2022/01/24 06:17:58;;;;;;;13.38;10.35;;;4.70;99.90;;;;;;5052617;28;20115;-75
2022/01/24 06:20:24;;;;;;;14.27;9.82;;;4.70;99.90;;;;;;5053042;28;20270;-75
2022/01/24 06:22:50;;;;;;;13.30;9.63;;;4.70;99.90;;;;;;5052579;28;20114;-74
2022/01/24 06:25:21;;;;;;;12.05;8.85;;;4.70;99.90;;;;;;5051201;28;20057;-74
2022/01/24 06:27:47;;;;;;;15.43;10.93;;;4.70;99.90;;;;;;5066937;28;20049;-74
2022/01/24 06:30:13;;;;;;;16.48;11.77;;;4.70;99.90;;;;;;5045889;28;20380;-75
2022/01/24 06:32:39;;;;;;;16.30;12.52;;;4.70;99.90;;;;;;5086898;28;20499;-74
2022/01/24 06:35:05;;;;;;;15.70;11.65;;;4.70;99.90;;;;;;5052492;28;20495;-74
2022/01/24 06:37:30;;;;;;;17.02;12.10;;;4.70;99.90;;;;;;5052412;28;20048;-75
2022/01/24 06:39:56;;;;;;;17.55;12.55;;;4.70;99.90;;;;;;5052935;28;20118;-75
2022/01/24 06:42:23;;;;;;;12.90;10.02;;;4.70;99.90;;;;;;5086847;28;20052;-75
2022/01/24 06:44:53;;;;;;;13.82;9.70;;;4.70;99.90;;;;;;5052680;28;20510;-75
2022/01/24 06:47:19;;;;;;;16.02;10.27;;;4.80;99.90;;;;;;5052652;28;20052;-74
2022/01/24 06:49:44;;;;;;;14.02;10.18;;;4.70;99.90;;;;;;5052875;28;20048;-74
2022/01/24 06:52:10;;;;;;;13.52;9.82;;;4.70;99.90;;;;;;5085781;28;20067;-74
2022/01/24 06:54:37;;;;;;;10.73;9.07;;;4.70;99.90;;;;;;5052807;28;20048;-75
2022/01/24 06:57:03;;;;;;;13.68;9.60;;;4.70;99.90;;;;;;5052363;28;20045;-74
2022/01/24 06:59:30;;;;;;;12.23;9.85;;;4.70;99.90;;;;;;5051961;28;20051;-75
2022/01/24 07:01:55;;;;;;;14.80;10.57;;;4.70;99.90;;;;;;5054071;28;20041;-75
2022/01/24 07:04:21;;;;;;;14.98;10.40;;;4.70;99.90;;;;;;5086376;28;20049;-75
2022/01/24 07:06:46;;;;;;;14.52;10.60;;;4.70;99.90;;;;;;5051042;28;20044;-75
2022/01/24 07:09:13;;;;;;;15.15;11.60;;;4.70;99.90;;;;;;5085830;28;20049;-75
2022/01/24 07:11:39;;;;;;;15.20;11.05;;;4.70;99.90;;;;;;5081479;28;20041;-75
2022/01/24 07:14:10;;;;;;;13.32;10.57;;;4.70;99.90;;;;;;5031932;28;20065;-75
2022/01/24 07:19:21;;;;;;;14.57;10.82;;;4.70;99.90;;;;;;5051274;28;20053;-75
2022/01/24 07:21:47;;;;;;;12.10;8.57;;;4.70;99.90;;;;;;5051478;28;20379;-75
2022/01/24 07:24:12;;;;;;;14.63;10.77;;;4.70;99.90;;;;;;5050925;28;20128;-73
2022/01/24 07:26:38;;;;;;;15.52;10.80;;;4.70;99.90;;;;;;5085485;28;20247;-74
2022/01/24 07:29:04;;;;;;;13.38;10.25;;;4.70;99.90;;;;;;5053173;28;20048;-75
2022/01/24 07:31:29;;;;;;;16.15;10.13;;;4.70;99.90;;;;;;5052007;28;20053;-75
2022/01/24 07:33:55;;;;;;;13.60;9.82;;;4.70;99.90;;;;;;5084872;28;20052;-74
2022/01/24 07:36:22;;;;;;;15.30;11.18;;;4.70;99.90;;;;;;5051763;28;20141;-75
2022/01/24 07:38:48;;;;;;;13.27;10.35;;;4.70;99.90;;;;;;5051874;28;20049;-75
2022/01/24 07:41:16;;;;;;;16.42;10.57;;;4.70;99.90;;;;;;5051089;28;20045;-75
2022/01/24 07:43:42;;;;;;;16.58;10.73;;;4.60;99.90;;;;;;5051612;28;20053;-74
2022/01/24 07:46:07;;;;;;;13.35;10.48;;;4.60;99.90;;;;;;5050449;28;20037;-74
2022/01/24 07:48:33;;;;;;;12.48;10.10;;;4.60;99.90;;;;;;5051358;28;20110;-75
2022/01/24 07:50:59;;;;;;;12.55;9.55;;;5.60;99.90;;;;;;5051655;28;20051;-75
2022/01/24 07:53:24;;;;;;;13.00;9.75;;;4.60;99.90;;;;;;5051576;28;20052;-74
2022/01/24 07:55:53;;;;;;;14.85;9.40;;;4.60;99.90;;;;;;5051424;28;20048;-74
2022/01/24 07:58:19;;;;;;;15.05;9.68;;;4.60;99.90;;;;;;5051326;28;20399;-75
2022/01/24 08:00:45;;;;;;;12.38;9.23;;;4.60;99.90;;;;;;5051770;28;20049;-74
2022/01/24 08:03:11;;;;;;;13.38;11.02;;;4.60;99.90;;;;;;5050376;28;20067;-75
2022/01/24 08:05:37;;;;;;;17.05;10.13;;;4.60;99.90;;;;;;5049363;28;20072;-75
2022/01/24 08:08:04;;;;;;;13.38;10.07;;;4.60;99.90;;;;;;5084549;28;20076;-74
2022/01/24 08:10:29;;;;;;;15.75;10.10;;;4.60;99.90;;;;;;5079627;28;20056;-71
2022/01/24 08:12:55;;;;;;;14.32;10.82;;;4.70;99.90;;;;;;5050430;28;20044;-74
2022/01/24 08:15:21;;;;;;;13.05;9.27;;;4.60;99.90;;;;;;5050325;28;20102;-74
2022/01/24 08:17:47;;;;;;;14.20;9.93;;;4.70;99.90;;;;;;5079532;28;20403;-74
2022/01/24 08:20:14;;;;;;;15.82;9.70;;;4.70;99.90;;;;;;5048976;28;20117;-75
2022/01/24 08:22:40;;;;;;;12.63;10.07;;;4.70;99.90;;;;;;5050443;28;20131;-75
2022/01/24 08:25:06;;;;;;;12.23;9.07;;;4.60;99.90;;;;;;5051337;28;20114;-74
2022/01/24 08:27:33;;;;;;;16.30;10.55;;;4.70;99.90;;;;;;5051958;28;20483;-74
2022/01/24 08:29:59;;;;;;;18.60;10.65;;;4.70;99.90;;;;;;5049796;28;20048;-74
2022/01/24 08:32:24;;;;;;;16.08;11.68;;;4.60;99.90;;;;;;5083756;28;20059;-74
2022/01/24 08:34:51;;;;;;;15.27;10.30;;;4.70;99.90;;;;;;5049064;28;20044;-75
2022/01/24 08:37:16;;;;;;;12.73;9.32;;;4.70;99.90;;;;;;5046827;28;20144;-75
2022/01/24 08:39:44;;;;;;;13.02;10.02;;;4.70;99.90;;;;;;5041809;28;20278;-75
2022/01/24 08:47:35;;;;;;;12.75;10.02;;;4.70;99.90;;;;;;5034170;28;20059;-75
2022/01/24 08:50:02;;;;;;;13.80;10.65;;;4.70;99.90;;;;;;5050546;28;20060;-75
2022/01/24 08:52:28;;;;;;;13.02;9.82;;;4.80;99.90;;;;;;5051068;28;20605;-75
2022/01/24 08:54:54;;;;;;;13.75;10.05;;;4.80;99.90;;;;;;5049675;28;20106;-75
2022/01/24 08:57:25;;;;;;;13.93;9.55;;;4.80;99.90;;;;;;5047926;28;20610;-74
2022/01/24 08:59:55;;;;;;;12.98;9.43;;;4.80;99.90;;;;;;5049229;28;20201;-75
2022/01/24 09:02:22;;;;;;;14.93;10.05;;;4.80;99.90;;;;;;5049973;28;20045;-72
2022/01/24 09:04:47;;;;;;;13.88;9.73;;;4.90;99.90;;;;;;5049399;28;20092;-73
2022/01/24 09:07:16;;;;;;;13.10;9.63;;;4.90;99.90;;;;;;5049221;28;20479;-75
2022/01/24 09:09:41;;;;;;;13.40;9.82;;;4.90;99.90;;;;;;5046948;28;20492;-73
2022/01/24 09:12:11;;;;;;;12.63;10.02;;;4.90;99.90;;;;;;5048324;28;20052;-74
2022/01/24 09:14:43;;;;;;;13.50;10.48;;;4.90;99.90;;;;;;5049520;28;20057;-74
2022/01/24 09:17:10;;;;;;;13.30;10.27;;;4.90;99.90;;;;;;5049120;28;20045;-74
2022/01/24 09:19:36;;;;;;;16.90;10.32;;;4.90;99.90;;;;;;5048335;28;20307;-74
2022/01/24 09:22:02;;;;;;;14.52;10.30;;;4.90;99.90;;;;;;5049059;28;20060;-74
2022/01/24 09:24:27;;;;;;;14.60;11.32;;;5.00;99.90;;;;;;5049205;28;20140;-74
2022/01/24 09:26:53;;;;;;;20.15;12.20;;;5.00;99.90;;;;;;5050128;28;20400;-74
2022/01/24 09:29:19;;;;;;;16.05;11.23;;;5.00;99.90;;;;;;5049549;28;20128;-74
2022/01/24 09:31:44;;;;;;;17.30;11.73;;;5.00;99.90;;;;;;5049656;28;20041;-72
2022/01/24 09:34:10;;;;;;;18.17;12.10;;;5.00;99.90;;;;;;5049985;28;20060;-72
2022/01/24 09:36:35;;;;;;;16.88;12.30;;;5.00;99.90;;;;;;5066697;28;20056;-72
2022/01/24 09:39:02;;;;;;;16.63;12.43;;;5.10;99.90;;;;;;5082998;28;20581;-73
2022/01/24 09:41:28;;;;;;;15.68;11.48;;;5.10;99.90;;;;;;5082135;28;20044;-72
2022/01/24 09:43:54;;;;;;;15.93;11.40;;;5.20;99.90;;;;;;5051086;28;20037;-68
2022/01/24 09:46:19;;;;;;;20.13;13.18;;;5.10;99.90;;;;;;5050530;28;20045;-66
2022/01/24 09:48:45;;;;;;;19.55;13.05;;;5.10;99.90;;;;;;5048366;28;20045;-71
2022/01/24 09:51:11;;;;;;;17.92;13.05;;;5.10;99.90;;;;;;5049381;28;20049;-69
2022/01/24 09:53:37;;;;;;;18.80;13.48;;;5.10;99.90;;;;;;5050854;28;20442;-78
2022/01/24 09:56:04;;;;;;;20.25;13.63;;;5.10;99.90;;;;;;5047724;28;20045;-79
2022/01/24 09:58:34;;;;;;;18.75;13.45;;;5.20;99.90;;;;;;5050018;28;20036;-78
2022/01/24 10:01:01;;;;;;;20.00;14.02;;;5.20;99.90;;;;;;5049453;28;20053;-78
2022/01/24 10:03:27;;;;;;;19.73;14.45;;;5.20;99.90;;;;;;5076664;28;20128;-78
2022/01/24 10:05:56;;;;;;;20.40;14.52;;;5.20;99.90;;;;;;5050774;28;20507;-78
2022/01/24 10:08:24;;;;;;;21.60;14.05;;;5.20;99.90;;;;;;5047741;28;20041;-77
2022/01/24 10:10:52;;;;;;;23.70;15.38;;;5.20;99.90;;;;;;5050618;28;20553;-79
2022/01/24 10:19:04;;;;;;;21.98;13.95;;;5.30;99.90;;;;;;5050171;28;20099;-79
2022/01/24 10:21:39;;;;;;;18.48;14.55;;;5.30;99.90;;;;;;5049517;28;20110;-79
2022/01/24 10:24:05;;;;;;;19.98;13.05;;;5.30;99.90;;;;;;5049058;28;20099;-79
2022/01/24 10:26:31;;;;;;;27.05;14.30;;;5.30;99.90;;;;;;5049654;28;20048;-78
2022/01/24 10:28:56;;;;;;;20.40;14.27;;;5.30;99.90;;;;;;5050681;28;20434;-78
2022/01/24 10:31:29;;;;;;;20.02;14.85;;;5.40;99.90;;;;;;5051314;28;20148;-79
2022/01/24 10:34:07;;;;;;;18.85;14.30;;;5.40;99.90;;;;;;5050118;28;20049;-79
2022/01/24 10:36:36;;;;;;;20.70;13.60;;;5.40;99.90;;;;;;5051132;28;20045;-74
2022/01/24 10:39:43;;;;;;;19.08;14.07;;;5.40;99.90;;;;;;5049065;28;20072;-77
2022/01/24 10:44:56;;;;;;;16.95;13.07;;;5.40;99.90;;;;;;5049477;28;20207;-75
2022/01/24 10:47:24;;;;;;;19.00;13.73;;;5.40;99.90;;;;;;5049658;28;20041;-78
2022/01/24 10:49:51;;;;;;;20.00;15.20;;;5.40;99.90;;;;;;5050378;28;20163;-79
2022/01/24 10:52:28;;;;;;;21.95;15.60;;;5.40;99.90;;;;;;5049015;28;20450;-76
2022/01/24 10:55:14;;;;;;;21.70;14.65;;;5.50;99.90;;;;;;5083219;28;20044;-75
2022/01/24 10:57:41;;;;;;;19.98;13.55;;;5.50;99.90;;;;;;5079226;28;20052;-79
2022/01/24 11:00:29;;;;;;;19.25;14.07;;;5.50;99.90;;;;;;5052907;28;20094;-71
2022/01/24 11:02:59;;;;;;;20.25;13.85;;;5.50;99.90;;;;;;5087397;28;20143;-71
2022/01/24 11:05:37;;;;;;;18.95;14.40;;;5.50;99.90;;;;;;5052490;28;20040;-70
2022/01/24 11:08:09;;;;;;;21.48;14.60;;;5.50;99.90;;;;;;5053202;28;20053;-71
2022/01/24 11:10:49;;;;;;;21.88;16.10;;;5.50;99.90;;;;;;5054062;28;20037;-70
2022/01/24 11:13:20;;;;;;;21.65;15.93;;;5.50;99.90;;;;;;5041014;28;20559;-70
2022/01/24 11:15:56;;;;;;;21.05;15.10;;;5.50;99.90;;;;;;5051294;28;20120;-70
2022/01/24 11:18:23;;;;;;;19.40;14.32;;;5.50;99.90;;;;;;5051930;28;20057;-71
2022/01/24 11:20:49;;;;;;;23.40;15.25;;;5.50;99.90;;;;;;5052545;28;20068;-71
2022/01/24 11:23:21;;;;;;;21.10;14.75;;;5.50;99.90;;;;;;5050180;28;20093;-71
2022/01/24 11:25:49;;;;;;;21.75;15.50;;;5.50;99.90;;;;;;5084324;28;20049;-71
2022/01/24 11:28:15;;;;;;;22.42;16.60;;;5.50;99.90;;;;;;5052585;28;20159;-71
2022/01/24 11:31:02;;;;;;;22.08;16.02;;;5.50;99.90;;;;;;5052467;28;20053;-70
2022/01/24 11:33:37;;;;;;;22.70;15.60;;;6.50;99.90;;;;;;5051672;28;20055;-70
2022/01/24 11:36:06;;;;;;;20.77;15.30;;;5.50;99.90;;;;;;5052363;28;20483;-70
2022/01/24 11:38:43;;;;;;;23.77;14.60;;;5.50;99.90;;;;;;5052429;28;20052;-70
2022/01/24 11:41:32;;;;;;;23.48;16.27;;;5.50;99.90;;;;;;5050669;28;20049;-70
2022/01/24 11:44:08;;;;;;;24.13;17.13;;;5.50;99.90;;;;;;5060870;28;20052;-71
2022/01/24 11:46:48;;;;;;;21.08;15.57;;;5.50;99.90;;;;;;5052116;28;20879;-70
2022/01/24 11:49:34;;;;;;;25.20;17.38;;;5.50;99.90;;;;;;5052608;28;20434;-70
2022/01/24 11:52:13;;;;;;;21.00;14.10;;;5.50;99.90;;;;;;5052212;28;20136;-70
2022/01/24 11:57:24;;;;;;;19.52;14.30;;;5.60;99.90;;;;;;5033660;28;20088;-71
2022/01/24 12:00:04;;;;;;;24.30;15.38;;;5.60;99.90;;;;;;5032564;28;20049;-70
2022/01/24 12:02:42;;;;;;;22.23;16.85;;;5.60;99.90;;;;;;5031957;28;20081;-71
2022/01/24 12:05:16;;;;;;;19.83;15.50;;;5.60;99.90;;;;;;5065790;28;20046;-71
2022/01/24 12:07:50;;;;;;;20.80;15.45;;;5.60;99.90;;;;;;5065119;28;20052;-71
2022/01/24 12:10:22;;;;;;;22.05;14.18;;;5.60;99.90;;;;;;5069586;28;20127;-74
2022/01/24 12:12:50;;;;;;;22.25;15.50;;;5.60;99.90;;;;;;5051692;28;20041;-71
2022/01/24 12:15:37;;;;;;;23.33;16.77;;;5.50;99.90;;;;;;5051020;28;20061;-73
2022/01/24 12:18:12;;;;;;;27.08;15.82;;;5.50;99.90;;;;;;5049976;28;20081;-72
2022/01/24 12:20:37;;;;;;;22.67;15.23;;;5.60;99.90;;;;;;5050509;28;20162;-72
2022/01/24 12:23:24;;;;;;;26.48;17.02;;;5.60;99.90;;;;;;5051844;28;20161;-72
2022/01/24 12:26:03;;;;;;;23.10;16.65;;;5.60;99.90;;;;;;5051392;28;20065;-72
2022/01/24 12:28:31;;;;;;;23.85;16.52;;;5.60;99.90;;;;;;5050934;28;20124;-71
2022/01/24 12:31:02;;;;;;;24.55;16.80;;;5.60;99.90;;;;;;5051366;28;20053;-72
2022/01/24 12:33:54;;;;;;;22.10;16.02;;;5.50;99.90;;;;;;5085605;28;20040;-72
2022/01/24 12:36:48;;;;;;;24.80;16.63;;;5.50;99.90;;;;;;5050838;28;20164;-72
2022/01/24 12:39:19;;;;;;;27.17;19.02;;;5.50;99.90;;;;;;5050713;28;20056;-72
2022/01/24 12:41:50;;;;;;;28.13;17.57;;;5.50;99.90;;;;;;5051398;28;20407;-71
2022/01/24 12:47:15;;;;;;;28.25;18.55;;;5.50;99.90;;;;;;5048821;28;20064;-71
2022/01/24 12:49:42;;;;;;;30.60;19.30;;;5.50;99.90;;;;;;5084334;28;20076;-72
2022/01/24 12:52:10;;;;;;;27.85;18.40;;;5.60;99.90;;;;;;5050092;28;20095;-71
2022/01/24 12:54:39;;;;;;;27.40;19.02;;;5.50;99.90;;;;;;5045693;28;20045;-71
2022/01/24 12:57:09;;;;;;;27.85;19.30;;;5.50;99.90;;;;;;5046653;28;20033;-71
2022/01/24 12:59:36;;;;;;;28.60;18.88;;;5.60;99.90;;;;;;5047030;28;20049;-70
2022/01/24 13:02:04;;;;;;;26.20;18.42;;;5.50;99.90;;;;;;5048287;28;20049;-70
2022/01/24 13:04:38;;;;;;;24.95;17.77;;;5.50;99.90;;;;;;5046227;28;20431;-71
2022/01/24 13:07:08;;;;;;;24.45;17.05;;;5.50;99.90;;;;;;5078467;28;20045;-71
2022/01/24 13:09:36;;;;;;;29.75;18.33;;;5.60;99.90;;;;;;5046905;28;20045;-71
2022/01/24 13:12:07;;;;;;;25.77;16.80;;;5.50;99.90;;;;;;5048783;28;20041;-70
2022/01/24 13:14:51;;;;;;;24.67;17.20;;;5.50;99.90;;;;;;5084089;28;20053;-70
2022/01/24 13:23:03;;;;;;;26.58;18.27;;;5.50;99.90;;;;;;5049448;28;20496;-71
2022/01/24 13:25:30;;;;;;;26.90;18.08;;;5.50;99.90;;;;;;5035039;28;20045;-71
2022/01/24 13:28:02;;;;;;;28.02;17.80;;;5.50;99.90;;;;;;5030469;28;20048;-71
2022/01/24 13:30:27;;;;;;;28.05;18.35;;;5.50;99.90;;;;;;5033252;28;20063;-71
2022/01/24 13:33:00;;;;;;;30.48;16.80;;;5.50;99.90;;;;;;5033435;28;20516;-71
2022/01/24 13:35:31;;;;;;;25.85;16.98;;;5.50;99.90;;;;;;5038287;28;20056;-71
2022/01/24 13:38:04;;;;;;;24.27;16.77;;;5.50;99.90;;;;;;5047117;28;20040;-72
2022/01/24 13:41:03;;;;;;;30.17;19.00;;;5.60;99.90;;;;;;5047771;28;20036;-71
2022/01/24 13:43:47;;;;;;;26.83;16.67;;;5.60;99.90;;;;;;5083795;28;20045;-71
2022/01/24 13:46:26;;;;;;;27.63;17.08;;;5.60;99.90;;;;;;5049281;28;20056;-72
2022/01/24 13:48:56;;;;;;;31.25;19.17;;;5.60;99.90;;;;;;5040900;28;20042;-71
2022/01/24 13:51:47;;;;;;;28.75;18.77;;;5.50;99.90;;;;;;5049112;28;20049;-73
2022/01/24 13:54:21;;;;;;;28.83;18.42;;;5.50;99.90;;;;;;5037371;28;20049;-73
2022/01/24 13:56:53;;;;;;;27.52;17.55;;;5.50;99.90;;;;;;5047811;28;20056;-73
2022/01/24 13:59:32;;;;;;;28.48;18.15;;;5.40;99.90;;;;;;5049398;28;20056;-72
2022/01/24 14:02:00;;;;;;;25.88;19.10;;;5.50;99.90;;;;;;5043677;28;20043;-72
2022/01/24 14:04:27;;;;;;;25.10;17.13;;;5.50;99.90;;;;;;5046072;28;20037;-68
2022/01/24 14:06:56;;;;;;;30.05;21.13;;;5.50;99.90;;;;;;5071727;28;20412;-68
2022/01/24 14:09:34;;;;;;;29.85;18.33;;;5.40;99.90;;;;;;5074209;28;20107;-68
2022/01/24 14:12:00;;;;;;;34.10;20.15;;;5.40;99.90;;;;;;5048859;28;20059;-68
2022/01/24 14:14:37;;;;;;;29.25;19.80;;;5.40;99.90;;;;;;5042114;28;20120;-68
2022/01/24 14:19:38;;;;;;;31.58;20.80;;;5.40;99.90;;;;;;5051369;28;20060;-68
2022/01/24 14:22:14;;;;;;;33.70;21.55;;;5.40;99.90;;;;;;5048921;28;20049;-68
2022/01/24 14:24:48;;;;;;;27.73;18.70;;;5.40;99.90;;;;;;5049330;28;20103;-68
2022/01/24 14:27:35;;;;;;;30.60;18.88;;;5.40;99.90;;;;;;5043896;28;20136;-68
2022/01/24 14:30:11;;;;;;;32.13;19.67;;;5.30;99.90;;;;;;5047452;28;20608;-68
2022/01/24 14:32:39;;;;;;;27.95;18.20;;;5.30;99.90;;;;;;5069434;28;20049;-68
2022/01/24 14:35:08;;;;;;;30.17;18.88;;;5.40;99.90;;;;;;5051825;28;20045;-68
2022/01/24 14:37:55;;;;;;;31.38;18.17;;;5.40;99.90;;;;;;5053552;28;20053;-68
2022/01/24 14:40:47;;;;;;;31.08;20.27;;;5.40;99.90;;;;;;5087239;28;21133;-67
2022/01/24 14:46:05;;;;;;;37.53;20.95;;;5.40;99.90;;;;;;5053471;28;20057;-68
2022/01/24 14:48:32;;;;;;;35.15;21.65;;;5.30;99.90;;;;;;5053675;28;20404;-68
2022/01/24 14:50:58;;;;;;;31.85;21.38;;;5.30;99.90;;;;;;5054449;28;20109;-68
2022/01/24 14:53:28;;;;;;;33.55;19.83;;;5.20;99.90;;;;;;5054465;28;20551;-68
2022/01/24 14:55:55;;;;;;;31.33;21.23;;;5.20;99.90;;;;;;5053461;28;20483;-68
2022/01/24 14:58:21;;;;;;;33.78;21.52;;;5.20;99.90;;;;;;5052812;28;20053;-68
2022/01/24 15:00:47;;;;;;;43.10;21.13;;;5.20;99.90;;;;;;5055059;28;20045;-69
2022/01/24 15:03:12;;;;;;;29.00;20.60;;;5.20;99.90;;;;;;5052474;28;20049;-68
2022/01/24 15:05:38;;;;;;;35.13;21.40;;;5.20;99.90;;;;;;5054829;28;20048;-68